createdAt,value
2022-08-28T00:00:20.788Z,16.87
2022-08-28T00:02:49.186Z,16.85
2022-08-28T00:05:20.476Z,16.82
2022-08-28T00:07:48.395Z,16.77
2022-08-28T00:10:18.071Z,16.71
2022-08-28T00:12:46.958Z,16.68
2022-08-28T00:15:20.927Z,16.62
2022-08-28T00:17:48.796Z,16.61
2022-08-28T00:20:18.557Z,16.58
2022-08-28T00:22:49.699Z,16.54
2022-08-28T00:25:24.121Z,16.49
2022-08-28T00:27:55.229Z,16.47
2022-08-28T00:30:25.072Z,16.46
2022-08-28T00:32:54.412Z,16.43
2022-08-28T00:35:23.653Z,16.40
2022-08-28T00:37:54.610Z,16.38
2022-08-28T00:40:33.075Z,16.36
2022-08-28T00:43:02.993Z,16.31
2022-08-28T00:45:38.749Z,16.30
2022-08-28T00:48:07.483Z,16.29
2022-08-28T00:50:50.757Z,16.25
2022-08-28T00:53:20.690Z,16.23
2022-08-28T00:55:51.501Z,16.23
2022-08-28T00:58:20.299Z,16.20
2022-08-28T01:00:47.913Z,16.19
2022-08-28T01:03:15.529Z,16.17
2022-08-28T01:05:46.658Z,16.18
2022-08-28T01:08:14.642Z,16.17
2022-08-28T01:10:47.603Z,16.16
2022-08-28T01:13:16.185Z,16.15
2022-08-28T01:15:44.790Z,16.12
2022-08-28T01:18:15.529Z,16.11
2022-08-28T01:20:49.686Z,16.10
2022-08-28T01:23:26.080Z,16.09
2022-08-28T01:25:55.280Z,16.09
2022-08-28T01:28:22.967Z,16.03
2022-08-28T01:30:50.607Z,16.01
2022-08-28T01:33:19.335Z,16.00
2022-08-28T01:35:56.176Z,15.97
2022-08-28T01:38:27.018Z,15.93
2022-08-28T01:40:59.110Z,15.92
2022-08-28T01:43:28.780Z,15.94
2022-08-28T01:46:01.792Z,15.89
2022-08-28T01:48:31.671Z,15.87
2022-08-28T01:51:00.279Z,15.85
2022-08-28T01:53:32.670Z,15.82
2022-08-28T01:56:04.522Z,15.78
2022-08-28T01:58:37.426Z,15.76
2022-08-28T02:01:09.495Z,15.72
2022-08-28T02:03:37.269Z,15.69
2022-08-28T02:06:04.985Z,15.66
2022-08-28T02:08:56.948Z,15.62
2022-08-28T02:11:26.111Z,15.59
2022-08-28T02:13:56.329Z,15.55
2022-08-28T02:16:24.155Z,15.54
2022-08-28T02:18:52.062Z,15.50
2022-08-28T02:21:19.947Z,15.47
2022-08-28T02:23:48.022Z,15.44
2022-08-28T02:26:16.197Z,15.40
2022-08-28T02:28:45.179Z,15.38
2022-08-28T02:31:13.275Z,15.36
2022-08-28T02:33:43.474Z,15.32
2022-08-28T02:36:13.042Z,15.31
2022-08-28T02:38:40.940Z,15.29
2022-08-28T02:41:09.155Z,15.27
2022-08-28T02:43:36.968Z,15.24
2022-08-28T02:46:06.873Z,15.21
2022-08-28T02:48:37.626Z,15.19
2022-08-28T02:51:09.028Z,15.19
2022-08-28T02:53:37.596Z,15.19
2022-08-28T02:56:06.215Z,15.16
2022-08-28T02:58:34.540Z,15.15
2022-08-28T03:01:04.134Z,15.15
2022-08-28T03:03:34.202Z,15.13
2022-08-28T03:06:03.700Z,15.11
2022-08-28T03:08:32.239Z,15.11
2022-08-28T03:11:00.928Z,15.11
2022-08-28T03:13:29.986Z,15.09
2022-08-28T03:15:58.626Z,15.10
2022-08-28T03:18:28.328Z,15.10
2022-08-28T03:20:57.835Z,15.08
2022-08-28T03:23:28.643Z,15.04
2022-08-28T03:25:58.552Z,15.03
2022-08-28T03:28:27.731Z,15.01
2022-08-28T03:30:55.665Z,15.01
2022-08-28T03:33:23.284Z,15.00
2022-08-28T03:35:51.562Z,14.99
2022-08-28T03:38:21.392Z,14.98
2022-08-28T03:40:49.325Z,14.95
2022-08-28T03:43:19.004Z,14.95
2022-08-28T03:45:56.509Z,14.93
2022-08-28T03:48:24.535Z,14.89
2022-08-28T03:50:54.055Z,14.86
2022-08-28T03:53:26.363Z,14.84
2022-08-28T03:55:54.359Z,14.81
2022-08-28T03:58:22.242Z,14.78
2022-08-28T04:00:51.028Z,14.77
2022-08-28T04:03:19.226Z,14.75
2022-08-28T04:05:47.826Z,14.72
2022-08-28T04:08:17.583Z,14.68
2022-08-28T04:10:48.291Z,14.67
2022-08-28T04:13:17.799Z,14.65
2022-08-28T04:15:46.176Z,14.62
2022-08-28T04:18:14.133Z,14.60
2022-08-28T04:20:41.804Z,14.58
2022-08-28T04:23:14.014Z,14.55
2022-08-28T04:25:41.910Z,14.53
2022-08-28T04:28:11.137Z,14.52
2022-08-28T04:30:41.600Z,14.49
2022-08-28T04:33:10.434Z,14.46
2022-08-28T04:35:38.118Z,14.45
2022-08-28T04:38:06.110Z,14.41
2022-08-28T04:40:34.028Z,14.39
2022-08-28T04:43:01.679Z,14.36
2022-08-28T04:45:30.702Z,14.33
2022-08-28T04:47:58.665Z,14.30
2022-08-28T04:50:30.526Z,14.26
2022-08-28T04:52:58.371Z,14.24
2022-08-28T04:55:40.080Z,14.19
2022-08-28T04:58:15.104Z,14.15
2022-08-28T05:00:47.819Z,14.11
2022-08-28T05:03:17.464Z,14.08
2022-08-28T05:05:46.445Z,14.06
2022-08-28T05:08:15.309Z,14.06
2022-08-28T05:10:43.376Z,14.03
2022-08-28T05:13:12.491Z,13.99
2022-08-28T05:15:40.434Z,14.00
2022-08-28T05:18:09.690Z,13.97
2022-08-28T05:20:38.555Z,13.96
2022-08-28T05:23:07.470Z,13.97
2022-08-28T05:25:36.376Z,13.95
2022-08-28T05:28:05.970Z,13.97
2022-08-28T05:30:39.526Z,13.98
2022-08-28T05:33:09.568Z,13.98
2022-08-28T05:35:39.123Z,14.00
2022-08-28T05:38:07.603Z,14.02
2022-08-28T05:40:41.978Z,14.03
2022-08-28T05:43:10.167Z,14.04
2022-08-28T05:45:37.795Z,14.05
2022-08-28T05:48:06.304Z,14.05
2022-08-28T05:50:37.820Z,14.05
2022-08-28T05:53:05.602Z,14.08
2022-08-28T05:55:33.167Z,14.05
2022-08-28T05:58:20.782Z,14.03
2022-08-28T06:00:48.390Z,14.04
2022-08-28T06:03:15.944Z,14.04
2022-08-28T06:05:44.933Z,14.06
2022-08-28T06:08:13.278Z,14.07
2022-08-28T06:10:44.795Z,14.07
2022-08-28T06:13:18.540Z,14.10
2022-08-28T06:15:48.243Z,14.12
2022-08-28T06:18:17.317Z,14.15
2022-08-28T06:20:47.986Z,14.17
2022-08-28T06:23:23.815Z,14.23
2022-08-28T06:25:52.674Z,14.29
2022-08-28T06:28:22.925Z,14.35
2022-08-28T06:31:15.964Z,14.44
2022-08-28T06:33:39.846Z,14.52
2022-08-28T06:36:09.511Z,14.62
2022-08-28T06:38:37.090Z,14.68
2022-08-28T06:41:09.937Z,14.77
2022-08-28T06:43:38.251Z,14.86
2022-08-28T06:46:06.412Z,14.94
2022-08-28T06:48:34.838Z,15.07
2022-08-28T06:51:02.958Z,15.19
2022-08-28T06:53:31.910Z,15.33
2022-08-28T06:56:02.136Z,15.47
2022-08-28T06:58:31.141Z,15.59
2022-08-28T07:01:07.764Z,15.69
2022-08-28T07:03:35.906Z,15.79
2022-08-28T07:06:12.522Z,15.87
2022-08-28T07:08:42.269Z,15.96
2022-08-28T07:11:11.341Z,16.02
2022-08-28T07:13:38.954Z,16.12
2022-08-28T07:16:07.504Z,16.25
2022-08-28T07:18:35.386Z,16.38
2022-08-28T07:21:03.358Z,16.52
2022-08-28T07:23:32.192Z,16.61
2022-08-28T07:26:04.325Z,16.72
2022-08-28T07:28:31.971Z,16.85
2022-08-28T07:31:03.487Z,17.01
2022-08-28T07:33:32.608Z,17.19
2022-08-28T07:36:02.631Z,17.33
2022-08-28T07:38:30.354Z,17.35
2022-08-28T07:40:58.031Z,17.38
2022-08-28T07:43:44.807Z,17.39
2022-08-28T07:46:12.917Z,17.35
2022-08-28T07:48:42.128Z,17.39
2022-08-28T07:51:11.038Z,17.44
2022-08-28T07:53:38.632Z,17.50
2022-08-28T07:56:07.233Z,17.61
2022-08-28T07:58:36.134Z,17.80
2022-08-28T08:01:03.772Z,17.95
2022-08-28T08:03:32.294Z,18.06
2022-08-28T08:06:03.154Z,18.15
2022-08-28T08:08:31.704Z,18.24
2022-08-28T08:11:01.424Z,18.26
2022-08-28T08:13:30.451Z,18.29
2022-08-28T08:16:04.289Z,18.36
2022-08-28T08:18:33.368Z,18.50
2022-08-28T08:21:01.516Z,18.54
2022-08-28T08:23:29.110Z,18.55
2022-08-28T08:25:58.988Z,18.53
2022-08-28T08:28:27.300Z,18.52
2022-08-28T08:31:05.826Z,18.54
2022-08-28T08:33:34.265Z,18.71
2022-08-28T08:36:02.049Z,18.97
2022-08-28T08:38:30.906Z,19.18
2022-08-28T08:41:01.708Z,19.12
2022-08-28T08:43:35.139Z,19.08
2022-08-28T08:46:04.246Z,19.09
2022-08-28T08:48:36.224Z,19.04
2022-08-28T08:51:04.991Z,19.04
2022-08-28T08:53:38.907Z,19.04
2022-08-28T08:56:07.410Z,19.06
2022-08-28T08:58:38.738Z,19.07
2022-08-28T09:01:15.438Z,19.13
2022-08-28T09:03:55.877Z,19.17
2022-08-28T09:06:30.459Z,19.29
2022-08-28T09:09:01.409Z,19.44
2022-08-28T09:11:38.202Z,19.67
2022-08-28T09:14:12.839Z,19.90
2022-08-28T09:16:46.425Z,19.98
2022-08-28T09:19:20.611Z,20.00
2022-08-28T09:21:50.747Z,20.07
2022-08-28T09:24:23.252Z,20.02
2022-08-28T09:26:58.486Z,20.01
2022-08-28T09:29:31.387Z,20.09
2022-08-28T09:32:18.113Z,20.24
2022-08-28T09:35:06.996Z,20.47
2022-08-28T09:37:36.591Z,20.57
2022-08-28T09:40:17.255Z,20.70
2022-08-28T09:43:22.166Z,20.81
2022-08-28T09:45:58.059Z,20.85
2022-08-28T09:48:33.821Z,20.88
2022-08-28T09:51:04.768Z,20.92
2022-08-28T09:53:35.159Z,20.89
2022-08-28T09:56:18.492Z,20.78
2022-08-28T09:58:50.956Z,20.69
2022-08-28T10:01:31.000Z,20.66
2022-08-28T10:04:12.513Z,20.73
2022-08-28T10:06:43.568Z,20.79
2022-08-28T10:09:22.510Z,20.76
2022-08-28T10:12:00.882Z,20.72
2022-08-28T10:14:53.716Z,20.82
2022-08-28T10:17:31.343Z,20.83
2022-08-28T10:20:08.623Z,20.82
2022-08-28T10:22:45.498Z,20.86
2022-08-28T10:25:23.614Z,20.91
2022-08-28T10:28:09.396Z,20.97
2022-08-28T10:30:44.200Z,20.96
2022-08-28T10:33:33.653Z,21.01
2022-08-28T10:36:08.316Z,21.15
2022-08-28T10:39:06.296Z,21.33
2022-08-28T10:41:42.081Z,21.34
2022-08-28T10:44:12.302Z,21.34
2022-08-28T10:46:45.899Z,21.34
2022-08-28T10:49:21.510Z,21.35
2022-08-28T10:51:52.692Z,21.39
2022-08-28T10:54:26.595Z,21.46
2022-08-28T10:56:58.540Z,21.49
2022-08-28T10:59:30.466Z,21.50
2022-08-28T11:01:59.284Z,21.43
2022-08-28T11:04:29.302Z,21.39
2022-08-28T11:07:02.393Z,21.31
2022-08-28T11:09:33.652Z,21.35
2022-08-28T11:12:04.430Z,21.36
2022-08-28T11:14:35.483Z,21.33
2022-08-28T11:17:09.582Z,21.31
2022-08-28T11:20:10.268Z,21.33
2022-08-28T11:22:44.778Z,21.31
2022-08-28T11:25:17.310Z,21.30
2022-08-28T11:28:14.619Z,21.33
2022-08-28T11:30:45.655Z,21.29
2022-08-28T11:33:37.715Z,21.38
2022-08-28T11:36:06.119Z,21.37
2022-08-28T11:39:05.068Z,21.37
2022-08-28T11:41:35.141Z,21.25
2022-08-28T11:44:43.525Z,21.16
2022-08-28T11:47:37.834Z,21.19
2022-08-28T11:50:15.404Z,21.16
2022-08-28T11:53:12.286Z,21.20
2022-08-28T11:56:31.114Z,21.19
2022-08-28T11:59:11.254Z,21.18
2022-08-28T12:01:39.291Z,21.23
2022-08-28T12:04:08.769Z,21.31
2022-08-28T12:07:21.943Z,21.34
2022-08-28T12:09:50.215Z,21.39
2022-08-28T12:12:54.357Z,21.39
2022-08-28T12:15:43.220Z,21.44
2022-08-28T12:18:55.364Z,21.46
2022-08-28T12:21:25.800Z,21.43
2022-08-28T12:24:09.087Z,21.43
2022-08-28T12:26:43.291Z,21.39
2022-08-28T12:29:27.974Z,21.43
2022-08-28T12:32:23.384Z,21.49
2022-08-28T12:35:07.536Z,21.53
2022-08-28T12:37:51.285Z,21.56
2022-08-28T12:40:22.886Z,21.61
2022-08-28T12:42:55.423Z,21.61
2022-08-28T12:45:28.928Z,21.66
2022-08-28T12:48:00.977Z,21.70
2022-08-28T12:50:33.071Z,21.80
2022-08-28T12:53:04.257Z,21.87
2022-08-28T12:55:32.667Z,21.95
2022-08-28T12:58:01.268Z,22.05
2022-08-28T13:00:34.775Z,22.07
2022-08-28T13:03:03.981Z,22.08
2022-08-28T13:05:34.363Z,22.17
2022-08-28T13:08:06.666Z,22.29
2022-08-28T13:10:37.456Z,22.46
2022-08-28T13:13:08.500Z,22.55
2022-08-28T13:16:03.205Z,22.71
2022-08-28T13:18:51.203Z,22.75
2022-08-28T13:21:33.843Z,22.87
2022-08-28T13:24:27.392Z,22.85
2022-08-28T13:27:06.738Z,22.80
2022-08-28T13:29:35.381Z,22.76
2022-08-28T13:32:06.801Z,22.74
2022-08-28T13:34:35.998Z,22.83
2022-08-28T13:37:07.260Z,22.91
2022-08-28T13:39:45.075Z,22.97
2022-08-28T13:42:15.342Z,23.01
2022-08-28T13:44:50.405Z,23.17
2022-08-28T13:47:19.449Z,23.37
2022-08-28T13:49:47.247Z,23.46
2022-08-28T13:52:15.181Z,23.56
2022-08-28T13:54:45.325Z,23.70
2022-08-28T13:57:13.581Z,23.82
2022-08-28T13:59:42.051Z,23.94
2022-08-28T14:02:30.922Z,24.07
2022-08-28T14:05:00.327Z,24.22
2022-08-28T14:07:29.307Z,24.33
2022-08-28T14:09:57.097Z,24.38
2022-08-28T14:12:32.646Z,24.36
2022-08-28T14:15:01.047Z,24.21
2022-08-28T14:17:28.766Z,24.13
2022-08-28T14:19:56.455Z,24.17
2022-08-28T14:22:25.425Z,24.22
2022-08-28T14:24:53.433Z,24.19
2022-08-28T14:27:21.274Z,24.19
2022-08-28T14:29:49.887Z,24.27
2022-08-28T14:32:17.552Z,24.36
2022-08-28T14:34:45.188Z,24.41
2022-08-28T14:37:13.211Z,24.54
2022-08-28T14:39:42.170Z,24.64
2022-08-28T14:42:12.968Z,24.80
2022-08-28T14:44:41.077Z,24.92
2022-08-28T14:47:08.679Z,24.99
2022-08-28T14:49:36.393Z,25.07
2022-08-28T14:52:04.712Z,25.13
2022-08-28T14:54:32.346Z,25.19
2022-08-28T14:57:01.366Z,25.03
2022-08-28T14:59:31.639Z,24.83
2022-08-28T15:02:00.503Z,24.62
2022-08-28T15:04:34.354Z,24.51
2022-08-28T15:07:06.058Z,24.41
2022-08-28T15:09:35.859Z,24.34
2022-08-28T15:12:05.884Z,24.18
2022-08-28T15:14:33.528Z,24.03
2022-08-28T15:17:01.266Z,23.86
2022-08-28T15:19:29.979Z,23.70
2022-08-28T15:21:58.576Z,23.65
2022-08-28T15:24:30.759Z,23.52
2022-08-28T15:26:59.453Z,23.45
2022-08-28T15:29:29.808Z,23.30
2022-08-28T15:31:58.156Z,23.19
2022-08-28T15:34:28.163Z,23.11
2022-08-28T15:36:57.257Z,22.97
2022-08-28T15:39:42.656Z,22.86
2022-08-28T15:42:11.363Z,22.74
2022-08-28T15:44:40.738Z,22.60
2022-08-28T15:47:08.603Z,22.51
2022-08-28T15:49:43.640Z,22.46
2022-08-28T15:52:18.943Z,22.42
2022-08-28T15:54:46.965Z,22.39
2022-08-28T15:57:14.589Z,22.38
2022-08-28T15:59:50.477Z,22.39
2022-08-28T16:02:20.344Z,22.36
2022-08-28T16:04:48.483Z,22.38
2022-08-28T16:07:16.481Z,22.31
2022-08-28T16:09:44.155Z,22.19
2022-08-28T16:12:11.788Z,22.15
2022-08-28T16:14:39.357Z,22.11
2022-08-28T16:17:10.821Z,22.11
2022-08-28T16:19:39.583Z,22.11
2022-08-28T16:22:07.785Z,22.12
2022-08-28T16:24:35.587Z,22.10
2022-08-28T16:27:03.280Z,22.08
2022-08-28T16:29:31.076Z,22.06
2022-08-28T16:31:59.122Z,21.98
2022-08-28T16:34:31.356Z,21.87
2022-08-28T16:36:59.258Z,21.82
2022-08-28T16:39:27.547Z,21.75
2022-08-28T16:41:55.256Z,21.74
2022-08-28T16:44:25.288Z,21.68
2022-08-28T16:46:53.096Z,21.61
2022-08-28T16:49:21.323Z,21.57
2022-08-28T16:51:50.573Z,21.56
2022-08-28T16:54:18.910Z,21.53
2022-08-28T16:56:46.858Z,21.48
2022-08-28T16:59:16.376Z,21.43
2022-08-28T17:01:44.152Z,21.37
2022-08-28T17:04:12.543Z,21.35
2022-08-28T17:06:40.384Z,21.30
2022-08-28T17:09:09.326Z,21.28
2022-08-28T17:11:37.154Z,21.26
2022-08-28T17:14:07.671Z,21.22
2022-08-28T17:16:35.388Z,21.18
2022-08-28T17:19:03.064Z,21.15
2022-08-28T17:21:48.225Z,21.05
2022-08-28T17:24:17.156Z,21.01
2022-08-28T17:26:45.023Z,20.97
2022-08-28T17:29:12.651Z,20.94
2022-08-28T17:31:40.990Z,20.91
2022-08-28T17:34:08.977Z,20.85
2022-08-28T17:36:37.601Z,20.80
2022-08-28T17:39:07.974Z,20.74
2022-08-28T17:41:37.118Z,20.72
2022-08-28T17:44:05.143Z,20.66
2022-08-28T17:46:37.408Z,20.64
2022-08-28T17:49:06.023Z,20.57
2022-08-28T17:51:43.716Z,20.50
2022-08-28T17:54:13.065Z,20.42
2022-08-28T17:56:42.367Z,20.38
2022-08-28T17:59:10.976Z,20.34
2022-08-28T18:01:39.009Z,20.25
2022-08-28T18:04:07.079Z,20.21
2022-08-28T18:06:35.161Z,20.13
2022-08-28T18:09:02.768Z,20.08
2022-08-28T18:11:30.543Z,20.02
2022-08-28T18:14:00.743Z,19.97
2022-08-28T18:16:31.698Z,19.91
2022-08-28T18:18:59.766Z,19.87
2022-08-28T18:21:27.708Z,19.80
2022-08-28T18:23:55.342Z,19.73
2022-08-28T18:26:23.371Z,19.67
2022-08-28T18:28:52.240Z,19.62
2022-08-28T18:31:21.366Z,19.55
2022-08-28T18:33:49.089Z,19.49
2022-08-28T18:36:17.964Z,19.44
2022-08-28T18:38:46.999Z,19.38
2022-08-28T18:41:14.659Z,19.32
2022-08-28T18:43:42.393Z,19.26
2022-08-28T18:46:10.958Z,19.18
2022-08-28T18:48:40.026Z,19.13
2022-08-28T18:51:09.415Z,19.08
2022-08-28T18:53:37.405Z,19.04
2022-08-28T18:56:07.085Z,18.94
2022-08-28T18:58:37.966Z,18.91
2022-08-28T19:01:08.155Z,18.86
2022-08-28T19:03:36.698Z,18.80
2022-08-28T19:06:06.942Z,18.74
2022-08-28T19:08:36.768Z,18.66
2022-08-28T19:11:08.865Z,18.61
2022-08-28T19:13:37.082Z,18.59
2022-08-28T19:16:05.808Z,18.52
2022-08-28T19:18:33.583Z,18.46
2022-08-28T19:21:07.609Z,18.40
2022-08-28T19:23:35.512Z,18.37
2022-08-28T19:26:03.483Z,18.35
2022-08-28T19:28:31.115Z,18.28
2022-08-28T19:30:58.969Z,18.21
2022-08-28T19:33:26.691Z,18.20
2022-08-28T19:35:55.019Z,18.16
2022-08-28T19:38:24.854Z,18.11
2022-08-28T19:40:57.067Z,18.04
2022-08-28T19:43:24.819Z,18.02
2022-08-28T19:46:10.423Z,17.95
2022-08-28T19:48:46.586Z,17.92
2022-08-28T19:51:17.390Z,17.85
2022-08-28T19:53:56.836Z,17.81
2022-08-28T19:56:27.131Z,17.76
2022-08-28T19:58:58.328Z,17.72
2022-08-28T20:01:29.437Z,17.69
2022-08-28T20:03:57.939Z,17.61
2022-08-28T20:06:25.574Z,17.58
2022-08-28T20:08:54.975Z,17.53
2022-08-28T20:11:24.977Z,17.50
2022-08-28T20:13:53.035Z,17.45
2022-08-28T20:16:21.421Z,17.39
2022-08-28T20:18:49.788Z,17.35
2022-08-28T20:21:18.629Z,17.29
2022-08-28T20:23:55.126Z,17.25
2022-08-28T20:26:22.744Z,17.19
2022-08-28T20:28:55.744Z,17.14
2022-08-28T20:31:23.411Z,17.07
2022-08-28T20:33:51.911Z,17.01
2022-08-28T20:36:21.508Z,16.96
2022-08-28T20:38:49.167Z,16.89
2022-08-28T20:41:20.398Z,16.82
2022-08-28T20:43:48.992Z,16.78
2022-08-28T20:46:17.884Z,16.71
2022-08-28T20:48:45.546Z,16.63
2022-08-28T20:51:13.788Z,16.50
2022-08-28T20:53:41.865Z,16.36
2022-08-28T20:56:11.041Z,16.20
2022-08-28T20:58:40.171Z,16.11
2022-08-28T21:01:08.558Z,16.03
2022-08-28T21:03:36.389Z,15.94
2022-08-28T21:06:04.471Z,15.86
2022-08-28T21:08:32.108Z,15.78
2022-08-28T21:11:00.234Z,15.68
2022-08-28T21:13:28.005Z,15.57
2022-08-28T21:15:57.063Z,15.45
2022-08-28T21:18:24.796Z,15.32
2022-08-28T21:20:52.509Z,15.22
2022-08-28T21:23:20.821Z,15.12
2022-08-28T21:25:48.967Z,15.01
2022-08-28T21:28:16.857Z,14.94
2022-08-28T21:30:44.594Z,14.84
2022-08-28T21:33:14.282Z,14.75
2022-08-28T21:35:42.937Z,14.66
2022-08-28T21:38:10.683Z,14.58
2022-08-28T21:40:40.654Z,14.50
2022-08-28T21:43:08.953Z,14.42
2022-08-28T21:45:36.733Z,14.32
2022-08-28T21:48:04.856Z,14.21
2022-08-28T21:50:33.898Z,14.15
2022-08-28T21:53:01.565Z,14.08
2022-08-28T21:55:29.140Z,14.02
2022-08-28T21:57:57.354Z,13.96
2022-08-28T22:00:25.116Z,13.92
2022-08-28T22:02:53.321Z,13.86
2022-08-28T22:05:21.353Z,13.80
2022-08-28T22:07:50.319Z,13.75
2022-08-28T22:10:18.065Z,13.70
2022-08-28T22:12:45.994Z,13.65
2022-08-28T22:15:13.747Z,13.57
2022-08-28T22:17:41.504Z,13.49
2022-08-28T22:20:10.543Z,13.45
2022-08-28T22:22:55.624Z,13.39
2022-08-28T22:25:25.030Z,13.35
2022-08-28T22:27:52.755Z,13.31
2022-08-28T22:30:20.992Z,13.27
2022-08-28T22:32:48.716Z,13.22
2022-08-28T22:35:16.590Z,13.17
2022-08-28T22:38:11.211Z,13.13
2022-08-28T22:40:40.411Z,13.08
2022-08-28T22:43:08.122Z,13.02
2022-08-28T22:45:36.050Z,12.98
2022-08-28T22:48:04.241Z,12.93
2022-08-28T22:50:31.917Z,12.91
2022-08-28T22:52:59.556Z,12.84
2022-08-28T22:55:27.538Z,12.79
2022-08-28T22:57:56.536Z,12.74
2022-08-28T23:00:26.999Z,12.67
2022-08-28T23:02:56.467Z,12.63
2022-08-28T23:05:25.812Z,12.59
2022-08-28T23:07:53.448Z,12.54
2022-08-28T23:10:36.701Z,12.53
2022-08-28T23:13:13.473Z,12.47
2022-08-28T23:15:43.410Z,12.43
2022-08-28T23:18:11.716Z,12.40
2022-08-28T23:20:39.364Z,12.36
2022-08-28T23:23:07.358Z,12.33
2022-08-28T23:25:35.845Z,12.29
2022-08-28T23:28:06.501Z,12.26
2022-08-28T23:30:35.759Z,12.23
2022-08-28T23:33:04.167Z,12.18
2022-08-28T23:35:36.853Z,12.16
2022-08-28T23:38:05.215Z,12.12
2022-08-28T23:40:34.010Z,12.08
2022-08-28T23:43:04.032Z,12.05
2022-08-28T23:45:32.087Z,12.00
2022-08-28T23:48:01.129Z,11.96
2022-08-28T23:50:28.889Z,11.94
2022-08-28T23:52:56.572Z,11.90
2022-08-28T23:55:26.980Z,11.87
2022-08-28T23:57:55.453Z,11.85
